Time;durP1;ratioP1;P1;durP2;ratioP2;P2;SDS_P1;SDS_P2;PMS_P1;PMS_P2;Temp;Humidity;BMP_temperature;BMP_pressure;BME280_temperature;BME280_humidity;BME280_pressure;Samples;Min_cycle;Max_cycle;Signal;HPM_P1;HPM_P2
2023/05/23 00:00:24;;;;;;;10.13;9.13;;;;;;;17.18;100.00;101298.34;5031556;28;20191;-78
2023/05/23 00:02:50;;;;;;;11.40;10.23;;;;;;;17.09;100.00;101297.50;5031412;28;20696;-78
2023/05/23 00:05:16;;;;;;;12.10;10.77;;;;;;;17.06;100.00;101288.00;5029658;28;20393;-78
2023/05/23 00:07:43;;;;;;;12.67;11.40;;;;;;;16.99;100.00;101290.59;5033054;28;20221;-77
2023/05/23 00:10:09;;;;;;;11.90;10.63;;;;;;;17.03;100.00;101294.88;5030769;28;20222;-78
2023/05/23 00:12:36;;;;;;;12.10;10.83;;;;;;;17.01;100.00;101292.31;5013391;28;20293;-78
2023/05/23 00:15:02;;;;;;;12.43;11.23;;;;;;;17.01;100.00;101294.03;5009976;28;20194;-78
2023/05/23 00:17:27;;;;;;;12.80;11.50;;;;;;;17.01;100.00;101291.44;5023303;28;20190;-78
2023/05/23 00:19:54;;;;;;;13.23;11.80;;;;;;;17.01;100.00;101289.72;5031513;28;20643;-78
2023/05/23 00:22:20;;;;;;;13.93;12.53;;;;;;;16.94;100.00;101295.75;5010582;28;20195;-78
2023/05/23 00:24:46;;;;;;;14.17;12.97;;;;;;;16.82;100.00;101298.34;5031993;28;20209;-78
2023/05/23 00:27:11;;;;;;;12.93;11.83;;;;;;;16.83;100.00;101291.41;5032521;28;20730;-78
2023/05/23 00:29:37;;;;;;;13.77;12.43;;;;;;;16.83;100.00;101300.06;5031715;28;20288;-78
2023/05/23 00:32:02;;;;;;;13.27;11.87;;;;;;;16.86;100.00;101294.88;5006347;28;20709;-78
2023/05/23 00:34:28;;;;;;;13.87;12.57;;;;;;;16.89;100.00;101301.75;5030150;28;20197;-78
2023/05/23 00:36:53;;;;;;;13.50;12.30;;;;;;;16.90;100.00;101300.94;5000051;28;20191;-78
2023/05/23 00:39:19;;;;;;;13.80;12.50;;;;;;;16.89;100.00;101294.00;5014015;28;20214;-77
2023/05/23 00:41:47;;;;;;;15.37;13.87;;;;;;;16.89;100.00;101294.88;5032448;28;20671;-78
2023/05/23 00:44:13;;;;;;;15.20;13.73;;;;;;;16.85;100.00;101284.53;5007682;28;20199;-77
2023/05/23 00:46:41;;;;;;;15.20;13.90;;;;;;;16.85;100.00;101276.78;5014759;28;20220;-78
2023/05/23 00:49:06;;;;;;;16.60;14.90;;;;;;;16.84;100.00;101283.66;5031719;28;20790;-77
2023/05/23 00:51:32;;;;;;;16.27;14.87;;;;;;;16.81;100.00;101287.97;5014763;28;20210;-78
2023/05/23 00:54:00;;;;;;;16.23;14.57;;;;;;;16.85;100.00;101282.78;4998763;28;20190;-77
2023/05/23 00:56:26;;;;;;;16.57;14.97;;;;;;;16.84;100.00;101291.44;5031428;28;20232;-77
2023/05/23 00:58:53;;;;;;;15.73;14.33;;;;;;;16.85;100.00;101284.53;4994804;28;21027;-77
2023/05/23 01:01:19;;;;;;;16.30;14.70;;;;;;;16.88;100.00;101281.94;5041025;28;20751;-78
2023/05/23 01:03:47;;;;;;;18.40;16.67;;;;;;;16.78;100.00;101286.25;5015467;28;20183;-78
2023/05/23 01:06:13;;;;;;;18.43;16.57;;;;;;;16.79;100.00;101285.38;5028849;28;20244;-78
2023/05/23 01:08:41;;;;;;;16.50;15.10;;;;;;;16.79;100.00;101281.91;5009034;28;20225;-78
2023/05/23 01:11:16;;;;;;;17.83;15.93;;;;;;;16.82;100.00;101284.53;5012039;28;20724;-78
2023/05/23 01:14:08;;;;;;;16.73;15.00;;;;;;;16.79;100.00;101272.44;5013718;28;20197;-78
2023/05/23 01:17:00;;;;;;;16.67;15.03;;;;;;;16.77;100.00;101268.13;5025558;28;20274;-78
2023/05/23 01:20:09;;;;;;;16.73;15.03;;;;;;;16.81;100.00;101264.69;5022963;28;20646;-78
2023/05/23 01:23:02;;;;;;;16.33;14.83;;;;;;;16.80;100.00;101274.16;4954205;28;20196;-77
2023/05/23 01:26:02;;;;;;;16.27;14.77;;;;;;;16.81;100.00;101262.94;4968850;28;20223;-78
2023/05/23 01:28:37;;;;;;;15.60;14.20;;;;;;;16.81;100.00;101262.09;5004753;28;20227;-78
2023/05/23 01:31:05;;;;;;;16.93;15.23;;;;;;;16.86;100.00;101257.81;5013417;28;20553;-78
2023/05/23 01:33:32;;;;;;;17.50;15.87;;;;;;;16.87;100.00;101259.53;4997769;28;20213;-77
2023/05/23 01:36:02;;;;;;;17.40;15.67;;;;;;;16.85;100.00;101258.66;5031578;28;20198;-78
2023/05/23 01:38:27;;;;;;;17.97;16.30;;;;;;;16.84;100.00;101257.78;5015315;28;20229;-78
2023/05/23 01:40:53;;;;;;;17.40;15.73;;;;;;;16.83;100.00;101255.19;5014559;28;20216;-78
2023/05/23 01:43:19;;;;;;;19.30;17.37;;;;;;;16.78;100.00;101247.44;5013759;28;20253;-78
2023/05/23 01:45:45;;;;;;;17.90;16.20;;;;;;;16.78;100.00;101246.56;5013555;28;20217;-77
2023/05/23 01:48:13;;;;;;;18.80;17.00;;;;;;;16.77;100.00;101252.63;5011280;28;20226;-78
2023/05/23 01:50:39;;;;;;;18.23;16.60;;;;;;;16.79;100.00;101253.47;5010786;28;20201;-77
2023/05/23 01:53:07;;;;;;;18.93;17.03;;;;;;;16.80;100.00;101257.81;5018071;28;20281;-77
2023/05/23 01:55:33;;;;;;;18.57;16.87;;;;;;;16.84;100.00;101254.34;5042056;28;20679;-77
2023/05/23 01:58:00;;;;;;;18.10;16.30;;;;;;;16.86;100.00;101252.63;5012862;28;20281;-78
2023/05/23 02:00:26;;;;;;;18.00;16.23;;;;;;;16.87;100.00;101256.94;5012873;28;20197;-78
2023/05/23 02:02:51;;;;;;;18.27;16.57;;;;;;;16.87;100.00;101255.22;5014191;28;20212;-77
2023/05/23 02:05:16;;;;;;;17.87;16.07;;;;;;;16.88;100.00;101253.47;5021869;28;20635;-77
2023/05/23 02:07:42;;;;;;;18.20;16.40;;;;;;;16.83;100.00;101250.03;5013365;28;20584;-78
2023/05/23 02:10:08;;;;;;;18.20;16.33;;;;;;;16.81;100.00;101254.34;5014018;28;20210;-78
2023/05/23 02:12:34;;;;;;;19.10;17.20;;;;;;;16.78;100.00;101254.34;5027882;28;20229;-78
2023/05/23 02:14:59;;;;;;;18.40;16.70;;;;;;;16.75;100.00;101259.50;5012908;28;20191;-77
2023/05/23 02:17:25;;;;;;;19.97;18.07;;;;;;;16.75;100.00;101256.91;5012790;28;20206;-78
2023/05/23 02:19:51;;;;;;;18.93;17.33;;;;;;;16.72;100.00;101265.53;5014174;28;20221;-78
2023/05/23 02:22:16;;;;;;;19.47;17.77;;;;;;;16.68;100.00;101263.81;5017305;28;20202;-78
2023/05/23 02:24:42;;;;;;;20.40;18.30;;;;;;;16.59;100.00;101266.41;5017073;28;20224;-78
2023/05/23 02:27:07;;;;;;;22.60;20.40;;;;;;;16.53;100.00;101256.03;5031569;28;20238;-79
2023/05/23 02:29:33;;;;;;;28.37;25.47;;;;;;;16.52;100.00;101258.59;5027134;28;20679;-79
2023/05/23 02:31:59;;;;;;;31.63;28.43;;;;;;;16.52;100.00;101256.88;5017868;28;20197;-79
2023/05/23 02:34:25;;;;;;;32.30;28.97;;;;;;;16.50;100.00;101253.44;5016857;28;20205;-79
2023/05/23 02:36:50;;;;;;;33.07;29.70;;;;;;;16.54;100.00;101257.75;5018038;28;20248;-78
2023/05/23 02:39:16;;;;;;;33.90;30.67;;;;;;;16.56;100.00;101261.22;5048716;28;20241;-78
2023/05/23 02:41:43;;;;;;;32.53;29.43;;;;;;;16.55;100.00;101263.78;5017430;28;20194;-79
2023/05/23 02:44:09;;;;;;;37.60;33.77;;;;;;;16.50;100.00;101263.78;5016176;28;20600;-78
2023/05/23 02:46:34;;;;;;;37.33;33.53;;;;;;;16.50;100.00;101256.03;4999394;28;20268;-80
2023/05/23 02:49:02;;;;;;;39.33;35.47;;;;;;;16.45;100.00;101257.75;4999302;28;20276;-78
2023/05/23 02:51:27;;;;;;;38.37;34.40;;;;;;;16.43;100.00;101262.03;4999391;28;20575;-78
2023/05/23 02:53:53;;;;;;;40.43;36.43;;;;;;;16.41;100.00;101262.91;5000855;28;20193;-79
2023/05/23 02:56:21;;;;;;;40.10;35.97;;;;;;;16.39;100.00;101267.19;5001579;28;20222;-79
2023/05/23 02:58:46;;;;;;;41.60;37.33;;;;;;;16.38;100.00;101271.47;5015522;28;20217;-77
2023/05/23 03:01:12;;;;;;;42.20;37.90;;;;;;;16.38;100.00;101273.19;5000364;28;20213;-79
2023/05/23 03:03:38;;;;;;;43.33;38.77;;;;;;;16.30;100.00;101274.91;4997136;28;20194;-79
2023/05/23 03:06:05;;;;;;;42.00;37.50;;;;;;;16.31;100.00;101274.88;5016286;28;20201;-79
2023/05/23 03:08:31;;;;;;;44.77;39.97;;;;;;;16.29;100.00;101273.16;5016204;28;20221;-78
2023/05/23 03:10:56;;;;;;;42.50;37.93;;;;;;;16.25;100.00;101276.63;5023397;28;20194;-77
2023/05/23 03:13:21;;;;;;;45.30;38.13;;;;;;;16.23;100.00;101273.16;5015994;28;20285;-79
2023/05/23 03:15:47;;;;;;;46.40;41.33;;;;;;;16.15;100.00;101280.88;5016223;28;20724;-79
2023/05/23 03:18:12;;;;;;;48.93;40.70;;;;;;;16.12;100.00;101287.75;5024786;28;20202;-79
2023/05/23 03:20:38;;;;;;;51.13;41.20;;;;;;;16.08;100.00;101273.97;5014431;28;20199;-79
2023/05/23 03:23:03;;;;;;;48.33;40.30;;;;;;;16.10;100.00;101271.38;5016199;28;20199;-78
2023/05/23 03:25:29;;;;;;;46.70;39.93;;;;;;;16.10;100.00;101271.38;5016392;28;20202;-79
2023/05/23 03:27:54;;;;;;;50.33;40.67;;;;;;;16.10;100.00;101271.38;5033332;28;20206;-78
2023/05/23 03:30:20;;;;;;;52.03;41.37;;;;;;;16.10;100.00;101274.84;5000202;28;20592;-79
2023/05/23 03:32:46;;;;;;;47.80;40.50;;;;;;;16.08;100.00;101281.72;5016095;28;20201;-78
2023/05/23 03:35:12;;;;;;;46.23;40.03;;;;;;;16.09;100.00;101285.16;5000546;28;20221;-79
2023/05/23 03:37:38;;;;;;;50.63;41.97;;;;;;;16.11;100.00;101280.88;5016163;28;20194;-78
2023/05/23 03:40:05;;;;;;;50.17;41.47;;;;;;;16.10;100.00;101282.56;5029985;28;20218;-78
2023/05/23 03:42:31;;;;;;;50.57;40.33;;;;;;;16.10;100.00;101284.28;5015228;28;20198;-79
2023/05/23 03:44:56;;;;;;;52.37;43.27;;;;;;;16.08;100.00;101273.97;5033311;28;20194;-78
2023/05/23 03:47:23;;;;;;;57.60;45.03;;;;;;;16.02;100.00;101275.66;4999195;28;20299;-79
2023/05/23 03:49:49;;;;;;;56.90;45.80;;;;;;;15.98;100.00;101274.75;5015640;28;20210;-79
2023/05/23 03:52:15;;;;;;;52.27;43.13;;;;;;;15.97;100.00;101275.63;5015455;28;20198;-79
2023/05/23 03:54:40;;;;;;;51.57;42.70;;;;;;;15.96;100.00;101279.06;5000571;28;20186;-79
2023/05/23 03:57:07;;;;;;;51.20;42.20;;;;;;;15.95;100.00;101286.81;5008604;28;20727;-80
2023/05/23 03:59:34;;;;;;;49.20;40.27;;;;;;;15.89;100.00;101284.22;5016304;28;20218;-78
2023/05/23 04:02:00;;;;;;;46.77;38.53;;;;;;;15.88;100.00;101282.50;5015161;28;20214;-79
2023/05/23 04:04:26;;;;;;;49.07;38.73;;;;;;;15.86;100.00;101286.78;5003377;28;20248;-79
2023/05/23 04:06:52;;;;;;;49.90;39.20;;;;;;;15.85;100.00;101287.63;5015242;28;20218;-78
2023/05/23 04:09:18;;;;;;;46.87;36.93;;;;;;;15.83;100.00;101286.75;5009988;28;20229;-80
2023/05/23 04:11:46;;;;;;;44.87;35.93;;;;;;;15.79;100.00;101285.03;5016562;28;20248;-79
2023/05/23 04:14:12;;;;;;;46.57;38.03;;;;;;;15.82;100.00;101282.44;5010578;28;20222;-78
2023/05/23 04:16:40;;;;;;;48.93;36.67;;;;;;;15.77;100.00;101278.97;4999842;28;20194;-79
2023/05/23 04:19:06;;;;;;;45.00;36.57;;;;;;;15.81;100.00;101279.00;5000570;28;20216;-79
2023/05/23 04:21:35;;;;;;;47.27;37.07;;;;;;;15.79;100.00;101280.69;5015595;28;20202;-79
2023/05/23 04:24:07;;;;;;;47.07;38.40;;;;;;;15.77;100.00;101282.44;5022565;28;20192;-79
2023/05/23 04:26:35;;;;;;;50.07;37.27;;;;;;;15.79;100.00;101280.69;5000716;28;20222;-79
2023/05/23 04:29:03;;;;;;;50.67;38.43;;;;;;;15.73;100.00;101278.09;5014484;28;20781;-80
2023/05/23 04:31:30;;;;;;;52.27;39.93;;;;;;;15.66;100.00;101275.47;5006321;28;20186;-79
2023/05/23 04:33:56;;;;;;;51.73;38.13;;;;;;;15.68;100.00;101276.34;5017354;28;20198;-79
2023/05/23 04:36:22;;;;;;;50.83;40.70;;;;;;;15.69;100.00;101276.34;5016344;28;20190;-78
2023/05/23 04:38:51;;;;;;;48.40;37.23;;;;;;;15.62;100.00;101278.88;5008312;28;20218;-78
2023/05/23 04:41:22;;;;;;;49.10;37.43;;;;;;;15.56;100.00;101284.03;5012624;28;20194;-78
2023/05/23 04:44:05;;;;;;;49.33;36.80;;;;;;;15.55;100.00;101295.19;5012486;28;20194;-79
2023/05/23 04:46:40;;;;;;;50.17;36.97;;;;;;;15.54;100.00;101291.75;5016973;28;20762;-79
2023/05/23 04:49:16;;;;;;;48.37;36.97;;;;;;;15.53;100.00;101286.56;5013092;28;20221;-79
2023/05/23 04:51:42;;;;;;;43.80;33.47;;;;;;;15.54;100.00;101291.75;4997415;28;20194;-76
2023/05/23 04:54:16;;;;;;;44.03;33.23;;;;;;;15.51;100.00;101281.41;5019370;28;20197;-79
2023/05/23 04:56:42;;;;;;;46.87;34.60;;;;;;;15.48;100.00;101288.28;5015489;28;20289;-80
2023/05/23 04:59:10;;;;;;;42.67;31.10;;;;;;;15.49;100.00;101290.00;4999938;28;20216;-80
2023/05/23 05:01:39;;;;;;;44.40;32.83;;;;;;;15.44;100.00;101296.84;4999634;28;20190;-79
2023/05/23 05:04:07;;;;;;;40.07;32.00;;;;;;;15.47;100.00;101291.72;5016898;28;20191;-79
2023/05/23 05:06:33;;;;;;;45.80;32.63;;;;;;;15.41;100.00;101286.47;5016217;28;20222;-78
2023/05/23 05:08:58;;;;;;;43.03;32.63;;;;;;;15.28;100.00;101293.25;5009244;28;20869;-79
2023/05/23 05:11:26;;;;;;;43.63;31.80;;;;;;;15.32;100.00;101292.41;4999475;28;20206;-78
2023/05/23 05:13:53;;;;;;;47.00;33.20;;;;;;;15.20;100.00;101297.47;5017859;28;20197;-78
2023/05/23 05:16:19;;;;;;;45.90;32.80;;;;;;;15.26;100.00;101296.66;5017709;28;20198;-79
2023/05/23 05:18:44;;;;;;;43.30;33.10;;;;;;;15.20;100.00;101302.63;5033484;28;20288;-79
2023/05/23 05:21:10;;;;;;;41.00;32.63;;;;;;;15.19;100.00;101294.91;5012221;28;20678;-79
2023/05/23 05:23:36;;;;;;;43.90;32.93;;;;;;;15.26;100.00;101307.00;5023096;28;20221;-79
2023/05/23 05:26:02;;;;;;;48.70;32.20;;;;;;;15.20;100.00;101315.53;5012280;28;20643;-78
2023/05/23 05:28:27;;;;;;;43.40;32.67;;;;;;;15.19;100.00;101315.56;5031092;28;20649;-79
2023/05/23 05:30:53;;;;;;;43.40;33.60;;;;;;;15.15;100.00;101306.91;5000431;28;20205;-79
2023/05/23 05:33:23;;;;;;;42.63;32.10;;;;;;;15.16;100.00;101312.94;4999847;28;20198;-79
2023/05/23 05:35:54;;;;;;;40.63;30.40;;;;;;;15.17;100.00;101304.34;5014819;28;20190;-79
2023/05/23 05:38:20;;;;;;;36.47;28.97;;;;;;;15.21;100.00;101312.13;5015498;28;20221;-78
2023/05/23 05:40:46;;;;;;;40.07;29.50;;;;;;;15.21;100.00;101306.09;5015083;28;20187;-77
2023/05/23 05:43:11;;;;;;;36.87;28.80;;;;;;;15.21;100.00;101306.97;4994402;28;20194;-78
2023/05/23 05:45:38;;;;;;;37.07;28.50;;;;;;;15.22;100.00;101308.69;5026850;28;20194;-78
2023/05/23 05:48:05;;;;;;;40.90;29.77;;;;;;;15.21;100.00;101306.09;5013247;28;20210;-78
2023/05/23 05:50:30;;;;;;;40.27;30.83;;;;;;;15.22;100.00;101312.97;5007187;28;20194;-78
2023/05/23 05:52:56;;;;;;;40.03;31.90;;;;;;;15.19;100.00;101316.41;5001036;28;20201;-78
2023/05/23 05:55:21;;;;;;;45.67;31.37;;;;;;;15.18;100.00;101314.69;5017173;28;20201;-77
2023/05/23 05:57:51;;;;;;;45.13;31.93;;;;;;;15.21;100.00;101313.84;5001100;28;20190;-78
2023/05/23 06:00:18;;;;;;;47.63;32.77;;;;;;;15.19;100.00;101313.81;5012280;28;20217;-77
2023/05/23 06:02:56;;;;;;;44.80;32.60;;;;;;;15.15;100.00;101313.78;5017077;28;20249;-77
2023/05/23 06:05:31;;;;;;;49.53;33.67;;;;;;;15.13;100.00;101313.78;5017426;28;20205;-77
2023/05/23 06:07:57;;;;;;;56.13;34.93;;;;;;;15.14;100.00;101310.34;5016839;28;20214;-79
2023/05/23 06:10:23;;;;;;;47.67;33.47;;;;;;;15.15;100.00;101317.22;5015629;28;20218;-78
2023/05/23 06:12:49;;;;;;;48.30;33.90;;;;;;;15.12;100.00;101312.06;4999394;28;20191;-78
2023/05/23 06:15:15;;;;;;;56.77;36.93;;;;;;;15.14;100.00;101324.97;5017822;28;20224;-78
2023/05/23 06:17:41;;;;;;;53.50;37.03;;;;;;;15.12;100.00;101321.50;5017062;28;20194;-77
2023/05/23 06:20:07;;;;;;;51.57;34.80;;;;;;;15.14;100.00;101325.81;5015711;28;20213;-78
2023/05/23 06:22:34;;;;;;;54.50;36.30;;;;;;;15.18;100.00;101317.25;5017072;28;20190;-78
2023/05/23 06:24:59;;;;;;;51.70;36.57;;;;;;;15.21;100.00;101319.88;5014269;28;20573;-78
2023/05/23 06:27:25;;;;;;;55.70;36.20;;;;;;;15.19;100.00;101313.81;5015704;28;20709;-77
2023/05/23 06:29:50;;;;;;;55.73;36.27;;;;;;;15.20;100.00;101322.44;5000391;28;20225;-77
2023/05/23 06:32:16;;;;;;;55.47;36.70;;;;;;;15.22;100.00;101319.00;4998931;28;20222;-78
2023/05/23 06:34:41;;;;;;;55.50;37.27;;;;;;;15.24;100.00;101319.03;5033595;28;20191;-78
2023/05/23 06:37:07;;;;;;;59.63;37.77;;;;;;;15.25;100.00;101315.59;5000361;28;20892;-78
2023/05/23 06:39:32;;;;;;;58.80;37.77;;;;;;;15.26;100.00;101313.03;5015699;28;20222;-78
2023/05/23 06:41:58;;;;;;;57.27;37.97;;;;;;;15.26;100.00;101320.78;5016649;28;20320;-78
2023/05/23 06:44:23;;;;;;;57.23;38.30;;;;;;;15.27;100.00;101317.34;5014109;28;20260;-78
2023/05/23 06:46:57;;;;;;;57.43;38.33;;;;;;;15.33;100.00;101316.53;5017118;28;20210;-78
2023/05/23 06:49:24;;;;;;;54.43;36.63;;;;;;;15.38;100.00;101310.56;5015965;28;20222;-78
2023/05/23 06:51:50;;;;;;;55.17;38.07;;;;;;;15.38;100.00;101317.47;5008168;28;20273;-78
2023/05/23 06:54:16;;;;;;;54.63;37.73;;;;;;;15.41;100.00;101322.63;5015220;28;20195;-78
2023/05/23 06:56:42;;;;;;;54.23;38.40;;;;;;;15.44;100.00;101318.38;4999149;28;20257;-78
2023/05/23 06:59:08;;;;;;;53.53;37.57;;;;;;;15.47;100.00;101313.22;5014764;28;20703;-79
2023/05/23 07:01:33;;;;;;;55.23;37.40;;;;;;;15.51;100.00;101322.69;5018092;28;20240;-78
2023/05/23 07:03:59;;;;;;;55.70;39.87;;;;;;;15.51;100.00;101322.69;4993100;28;20191;-78
2023/05/23 07:06:26;;;;;;;56.70;37.90;;;;;;;15.54;100.00;101325.31;5011184;28;20639;-78
2023/05/23 07:08:52;;;;;;;53.53;39.40;;;;;;;15.57;100.00;101327.06;5019557;28;20687;-78
2023/05/23 07:11:20;;;;;;;57.27;40.27;;;;;;;15.58;100.00;101321.91;5014685;28;20189;-78
2023/05/23 07:13:53;;;;;;;61.57;41.87;;;;;;;15.56;100.00;101323.59;5009135;28;20186;-78
2023/05/23 07:16:28;;;;;;;60.73;42.47;;;;;;;15.60;100.00;101321.88;5001112;28;20186;-78
2023/05/23 07:19:04;;;;;;;61.73;44.27;;;;;;;15.60;100.00;101329.63;5000824;28;20248;-78
2023/05/23 07:21:30;;;;;;;59.67;43.60;;;;;;;15.62;100.00;101333.09;5011352;28;20186;-76
2023/05/23 07:23:56;;;;;;;60.67;43.93;;;;;;;15.60;100.00;101333.09;5013605;28;20934;-77
2023/05/23 07:26:22;;;;;;;62.03;41.33;;;;;;;15.62;100.00;101333.09;5016080;28;20733;-76
2023/05/23 07:28:51;;;;;;;53.83;39.73;;;;;;;15.58;100.00;101328.78;4996772;28;20222;-76
2023/05/23 07:31:17;;;;;;;57.90;41.23;;;;;;;15.58;100.00;101332.22;5017059;28;20255;-78
2023/05/23 07:33:43;;;;;;;60.17;39.60;;;;;;;15.56;100.00;101336.50;5016218;28;20570;-77
2023/05/23 07:36:11;;;;;;;49.47;35.93;;;;;;;15.56;100.00;101330.50;5017941;28;20198;-77
2023/05/23 07:38:36;;;;;;;48.73;33.53;;;;;;;15.56;100.00;101335.66;5029376;28;20356;-77
2023/05/23 07:41:02;;;;;;;46.80;33.30;;;;;;;15.55;100.00;101339.06;5028910;28;20281;-77
2023/05/23 07:43:27;;;;;;;42.60;30.13;;;;;;;15.55;100.00;101342.53;5005979;28;20183;-76
2023/05/23 07:45:53;;;;;;;37.87;27.70;;;;;;;15.56;100.00;101339.09;5013291;28;20225;-78
2023/05/23 07:48:18;;;;;;;34.33;26.80;;;;;;;15.55;100.00;101337.38;5005243;28;20221;-76
2023/05/23 07:50:44;;;;;;;34.00;25.47;;;;;;;15.56;100.00;101346.81;5009634;28;20193;-78
2023/05/23 07:53:11;;;;;;;33.07;26.10;;;;;;;15.57;100.00;101347.72;5012561;28;20190;-78
2023/05/23 07:55:37;;;;;;;36.13;27.20;;;;;;;15.52;100.00;101347.66;5015292;28;20190;-78
2023/05/23 07:58:03;;;;;;;36.80;29.87;;;;;;;15.47;100.00;101351.06;5032210;28;20201;-78
2023/05/23 08:00:30;;;;;;;34.90;28.60;;;;;;;15.49;100.00;101355.41;5013853;28;20197;-78
2023/05/23 08:03:03;;;;;;;36.20;28.10;;;;;;;15.47;100.00;101356.25;5013757;28;20815;-78
2023/05/23 08:05:34;;;;;;;33.70;28.07;;;;;;;15.41;100.00;101361.34;5013832;28;20198;-79
2023/05/23 08:08:00;;;;;;;31.40;25.93;;;;;;;15.40;100.00;101357.03;5015671;28;20221;-78
2023/05/23 08:10:28;;;;;;;26.97;23.00;;;;;;;15.41;100.00;101369.06;5020648;28;20190;-77
2023/05/23 08:12:59;;;;;;;21.67;19.47;;;;;;;15.48;100.00;101365.72;5008816;28;20572;-78
2023/05/23 08:15:28;;;;;;;21.70;18.33;;;;;;;15.45;100.00;101381.16;5015692;28;20194;-78
2023/05/23 08:18:03;;;;;;;20.67;18.47;;;;;;;15.45;100.00;101388.91;4998110;28;20239;-77
2023/05/23 08:20:32;;;;;;;19.70;17.13;;;;;;;15.67;100.00;101380.47;5016994;28;20186;-78
2023/05/23 08:22:59;;;;;;;23.20;16.87;;;;;;;15.76;100.00;101384.00;5017422;28;20343;-77
2023/05/23 08:25:29;;;;;;;16.03;14.33;;;;;;;15.84;100.00;101396.97;5003551;28;20201;-79
2023/05/23 08:27:59;;;;;;;14.33;12.83;;;;;;;15.82;100.00;101398.66;5007778;28;20211;-77
2023/05/23 08:30:39;;;;;;;13.23;11.83;;;;;;;15.82;100.00;101398.66;4999884;28;20186;-77
2023/05/23 08:33:05;;;;;;;14.57;11.87;;;;;;;15.91;100.00;101412.53;5009961;28;20194;-78
2023/05/23 08:35:34;;;;;;;14.03;12.63;;;;;;;15.81;100.00;101415.03;5011522;28;20198;-78
2023/05/23 08:38:04;;;;;;;15.73;12.33;;;;;;;15.82;100.00;101409.88;5013786;28;20904;-78
2023/05/23 08:40:31;;;;;;;13.73;12.33;;;;;;;15.85;100.00;101409.91;4993398;28;20198;-78
2023/05/23 08:43:05;;;;;;;14.60;11.77;;;;;;;15.82;100.00;101414.16;5012812;28;20284;-78
2023/05/23 08:45:30;;;;;;;15.47;10.67;;;;;;;15.88;100.00;101420.22;4998353;28;20345;-78
2023/05/23 08:47:59;;;;;;;13.03;11.17;;;;;;;15.97;100.00;101427.22;5018093;28;20230;-79
2023/05/23 08:50:27;;;;;;;11.83;9.80;;;;;;;16.00;100.00;101425.50;5016132;28;20581;-79
2023/05/23 08:52:56;;;;;;;11.67;10.17;;;;;;;15.88;100.00;101430.56;5028324;28;20194;-79
2023/05/23 08:55:27;;;;;;;12.23;9.97;;;;;;;15.83;100.00;101433.97;4998536;28;20279;-78
2023/05/23 08:57:59;;;;;;;12.27;9.63;;;;;;;16.00;100.00;101438.41;5007583;28;20221;-78
2023/05/23 09:00:52;;;;;;;10.23;9.10;;;;;;;15.96;100.00;101440.94;5028417;28;20187;-79
2023/05/23 09:03:18;;;;;;;11.97;9.40;;;;;;;15.98;100.00;101442.69;5013131;28;20198;-81
2023/05/23 09:06:20;;;;;;;12.27;9.33;;;;;;;15.99;100.00;101446.16;5010302;28;20206;-78
2023/05/23 09:08:47;;;;;;;12.13;8.73;;;;;;;15.93;100.00;101459.03;5017421;28;20528;-79
2023/05/23 09:11:14;;;;;;;9.03;7.80;;;;;;;15.90;100.00;101448.66;5017090;28;20194;-79
2023/05/23 09:13:42;;;;;;;9.60;8.00;;;;;;;15.98;100.00;101460.78;5032656;28;20224;-79
2023/05/23 09:16:11;;;;;;;8.70;7.77;;;;;;;15.92;100.00;101472.78;5014214;28;20644;-79
2023/05/23 09:18:44;;;;;;;8.67;7.33;;;;;;;15.90;100.00;101467.63;5015337;28;20210;-79
2023/05/23 09:21:13;;;;;;;7.70;6.90;;;;;;;15.95;100.00;101471.09;5014966;28;20293;-77
2023/05/23 09:23:49;;;;;;;9.07;6.73;;;;;;;16.07;100.00;101478.09;5015398;28;20186;-78
2023/05/23 09:26:15;;;;;;;8.70;7.00;;;;;;;16.29;100.00;101480.81;5030147;28;20190;-78
2023/05/23 09:28:43;;;;;;;8.03;6.43;;;;;;;16.34;100.00;101478.28;5012776;28;20726;-80
2023/05/23 09:31:12;;;;;;;7.63;6.07;;;;;;;16.14;100.00;101487.59;5000956;28;20602;-78
2023/05/23 09:33:48;;;;;;;10.20;6.50;;;;;;;16.29;100.00;101482.53;5013651;28;20696;-78
2023/05/23 09:36:16;;;;;;;8.03;6.43;;;;;;;16.06;100.00;101503.03;5011120;28;20252;-79
2023/05/23 09:38:45;;;;;;;6.67;6.07;;;;;;;15.94;100.00;101502.94;4999125;28;20225;-78
2023/05/23 09:41:11;;;;;;;6.67;5.57;;;;;;;15.94;100.00;101502.09;5013360;28;20653;-79
2023/05/23 09:43:57;;;;;;;9.50;6.17;;;;;;;15.82;100.00;101508.00;4996217;28;20293;-78
2023/05/23 09:46:27;;;;;;;6.93;6.20;;;;;;;15.68;100.00;101512.19;5030299;28;20226;-79
2023/05/23 09:48:54;;;;;;;8.17;6.63;;;;;;;15.51;100.00;101516.31;5053028;28;20222;-74
2023/05/23 09:51:21;;;;;;;8.00;7.20;;;;;;;15.56;100.00;101521.53;5014325;28;20190;-78
2023/05/23 09:53:47;;;;;;;8.33;7.27;;;;;;;15.52;100.00;101518.03;4999366;28;20201;-77
2023/05/23 09:56:14;;;;;;;7.43;6.63;;;;;;;15.38;100.00;101517.03;5034202;28;20210;-78
2023/05/23 09:58:47;;;;;;;7.77;6.70;;;;;;;15.34;100.00;101519.56;5019886;28;20205;-77
2023/05/23 10:01:13;;;;;;;8.90;6.77;;;;;;;15.29;100.00;101526.38;5013969;28;20675;-79
2023/05/23 10:03:46;;;;;;;12.30;9.13;;;;;;;15.20;100.00;101521.94;5029843;28;20269;-78
2023/05/23 10:06:22;;;;;;;12.23;9.87;;;;;;;15.11;100.00;101526.16;5028833;28;20206;-78
2023/05/23 10:09:05;;;;;;;16.23;11.30;;;;;;;14.87;100.00;101534.44;5029750;28;20210;-79
2023/05/23 10:11:33;;;;;;;16.30;12.03;;;;;;;14.77;100.00;101548.06;5031639;28;20285;-79
2023/05/23 10:14:09;;;;;;;16.03;12.63;;;;;;;14.58;100.00;101551.22;5023109;28;20293;-79
2023/05/23 10:16:58;;;;;;;16.27;13.30;;;;;;;14.55;100.00;101545.19;5031864;28;20182;-79
2023/05/23 10:19:30;;;;;;;16.30;11.83;;;;;;;14.43;100.00;101560.44;5027454;28;20889;-78
2023/05/23 10:22:02;;;;;;;17.13;12.20;;;;;;;14.45;100.00;101566.50;5027482;28;20203;-78
2023/05/23 10:24:28;;;;;;;13.17;11.07;;;;;;;14.41;100.00;101572.44;5028880;28;20206;-78
2023/05/23 10:26:54;;;;;;;14.10;10.97;;;;;;;14.38;100.00;101582.69;5030240;28;20210;-78
2023/05/23 10:29:21;;;;;;;11.67;8.87;;;;;;;14.21;100.00;101577.28;5016872;28;20225;-76
2023/05/23 10:31:48;;;;;;;13.23;8.80;;;;;;;14.22;100.00;101573.00;5026775;28;20194;-78
2023/05/23 10:34:27;;;;;;;9.93;7.57;;;;;;;14.31;100.00;101586.03;5018000;28;20202;-74
2023/05/23 10:37:04;;;;;;;7.93;6.50;;;;;;;14.35;100.00;101588.69;5016774;28;20609;-79
2023/05/23 10:39:48;;;;;;;6.50;5.60;;;;;;;14.24;100.00;101602.22;5033195;28;20213;-77
2023/05/23 10:42:18;;;;;;;6.03;5.33;;;;;;;14.16;100.00;101591.75;5030445;28;20214;-77
2023/05/23 10:44:43;;;;;;;7.33;5.87;;;;;;;14.05;100.00;101610.44;5031485;28;20604;-78
2023/05/23 10:47:11;;;;;;;8.90;5.93;;;;;;;14.08;100.00;101608.78;5020220;28;20233;-77
2023/05/23 10:49:50;;;;;;;8.63;6.00;;;;;;;14.13;100.00;101620.03;5035883;28;20305;-78
2023/05/23 10:52:16;;;;;;;10.97;6.57;;;;;;;14.10;100.00;101619.13;5013674;28;20846;-79
2023/05/23 10:54:51;;;;;;;7.33;5.57;;;;;;;14.07;100.00;101613.91;5038764;28;20679;-78
2023/05/23 10:57:19;;;;;;;8.27;6.20;;;;;;;13.91;100.00;101622.22;5033571;28;20809;-77
2023/05/23 10:59:48;;;;;;;7.80;5.90;;;;;;;13.94;100.00;101627.41;5018696;28;20217;-77
2023/05/23 11:02:17;;;;;;;10.90;6.10;;;;;;;13.97;100.00;101624.88;5016640;28;20198;-76
2023/05/23 11:04:43;;;;;;;10.60;6.03;;;;;;;13.99;100.00;101633.53;5013716;28;20198;-76
2023/05/23 11:07:28;;;;;;;9.83;5.07;;;;;;;13.90;100.00;101634.19;5032093;28;20643;-76
2023/05/23 11:10:22;;;;;;;14.37;4.77;;;;;;;14.05;100.00;101639.63;5013422;28;20240;-77